Yuejianhang055 — 055 — position and weather

sailwx.info

Track history (hours):
 
Tides and Currents Weather Stations Pressure Air Temp Water Temp Dewpoint Dewpoint Depression Visibility Wind Speed Wind Dir Waves Ship Positions

Yuejianhang055

Last reported at 2016-Jul-01 13:22 UTC. Time now 2016-Sep-28 11:59 UTC.
Position N 23°02' E 113°22'.
Warning: this ship's position is months out of date.

Length 76 m.

Type: Cargo ship. MMSI: 412474880.

Date/timePositionNaut miles runAvg speedWind from/ knotsBaromVisibWave heightAir tempDewpointWater temp
2016-Jul-01 13:22N 23°02' E 113°22'0 0.0
2016-Jul-01 10:15N 23°02' E 113°22'0 0.0
2016-Jul-01 08:20N 23°02' E 113°22'0 0.0
2016-Jul-01 06:26N 23°02' E 113°22'0 0.2
2016-Jul-01 05:28N 23°02' E 113°22'1 0.0
2016-Jun-29 14:30N 23°02' E 113°23'4 4.1
2016-Jun-29 13:26N 23°06' E 113°25'2 1.5
2016-Jun-29 12:25N 23°06' E 113°24'1 0.1
2016-Jun-29 06:11N 23°06' E 113°24'0 0.0
2016-Jun-29 00:32N 23°06' E 113°24'0 0.0
2016-Jun-28 22:30N 23°06' E 113°25'7 2.1
2016-Jun-28 19:24N 23°02' E 113°30'0 0.0
2016-Jun-28 18:18N 23°02' E 113°30'0 0.0
2016-Jun-28 16:30N 23°02' E 113°31'0 0.0
2016-Jun-28 15:18N 23°02' E 113°31'0 0.0
2016-Jun-28 14:18N 23°02' E 113°31'0 0.0
2016-Jun-28 12:12N 23°02' E 113°31'0 0.0
2016-Jun-27 17:33N 23°03' E 113°31'5 5.0
2016-Jun-27 16:32N 23°04' E 113°25'  
Track history (hours):
 
Tides and Currents Weather Stations Pressure Air Temp Water Temp Dewpoint Dewpoint Depression Visibility Wind Speed Wind Dir Waves Ship Positions

Yuejianhang055

Last reported at 2016-Jul-01 13:22 UTC. Time now 2016-Sep-28 11:59 UTC.
Position N 23°02' E 113°22'.
Warning: this ship's position is months out of date.

Length 76 m.

Type: Cargo ship. MMSI: 412474880.

Date/timePositionNaut miles runAvg speedWind from/ knotsBaromVisibWave heightAir tempDewpointWater temp
2016-Jul-01 13:22N 23°02' E 113°22'0 0.0
2016-Jul-01 10:15N 23°02' E 113°22'0 0.0
2016-Jul-01 08:20N 23°02' E 113°22'0 0.0
2016-Jul-01 06:26N 23°02' E 113°22'0 0.2
2016-Jul-01 05:28N 23°02' E 113°22'1 0.0
2016-Jun-29 14:30N 23°02' E 113°23'4 4.1
2016-Jun-29 13:26N 23°06' E 113°25'2 1.5
2016-Jun-29 12:25N 23°06' E 113°24'1 0.1
2016-Jun-29 06:11N 23°06' E 113°24'0 0.0
2016-Jun-29 00:32N 23°06' E 113°24'0 0.0
2016-Jun-28 22:30N 23°06' E 113°25'7 2.1
2016-Jun-28 19:24N 23°02' E 113°30'0 0.0
2016-Jun-28 18:18N 23°02' E 113°30'0 0.0
2016-Jun-28 16:30N 23°02' E 113°31'0 0.0
2016-Jun-28 15:18N 23°02' E 113°31'0 0.0
2016-Jun-28 14:18N 23°02' E 113°31'0 0.0
2016-Jun-28 12:12N 23°02' E 113°31'0 0.0
2016-Jun-27 17:33N 23°03' E 113°31'5 5.0
2016-Jun-27 16:32N 23°04' E 113°25'  

Dump ship's entire track history